sensor_id;sensor_type;location;lat;lon;timestamp;P1;durP1;ratioP1;P2;durP2;ratioP2
9761;SDS011;4920;49.594;11.022;2023-03-15T00:00:28;14.90;;;4.07;;
9761;SDS011;4920;49.594;11.022;2023-03-15T00:02:57;8.63;;;3.73;;
9761;SDS011;4920;49.594;11.022;2023-03-15T00:05:25;9.10;;;4.20;;
9761;SDS011;4920;49.594;11.022;2023-03-15T00:07:56;10.70;;;4.00;;
9761;SDS011;4920;49.594;11.022;2023-03-15T00:10:24;13.10;;;4.03;;
9761;SDS011;4920;49.594;11.022;2023-03-15T00:12:54;8.90;;;3.57;;
9761;SDS011;4920;49.594;11.022;2023-03-15T00:15:22;14.27;;;4.13;;
9761;SDS011;4920;49.594;11.022;2023-03-15T00:17:51;12.90;;;3.93;;
9761;SDS011;4920;49.594;11.022;2023-03-15T00:20:20;10.10;;;3.93;;
9761;SDS011;4920;49.594;11.022;2023-03-15T00:22:48;14.63;;;4.57;;
9761;SDS011;4920;49.594;11.022;2023-03-15T00:25:18;15.30;;;4.47;;
9761;SDS011;4920;49.594;11.022;2023-03-15T00:27:47;15.90;;;4.50;;
9761;SDS011;4920;49.594;11.022;2023-03-15T00:30:16;14.63;;;3.83;;
9761;SDS011;4920;49.594;11.022;2023-03-15T00:32:44;14.00;;;3.60;;
9761;SDS011;4920;49.594;11.022;2023-03-15T00:35:13;8.13;;;3.00;;
9761;SDS011;4920;49.594;11.022;2023-03-15T00:37:44;13.23;;;3.50;;
9761;SDS011;4920;49.594;11.022;2023-03-15T00:40:14;11.07;;;3.40;;
9761;SDS011;4920;49.594;11.022;2023-03-15T00:42:45;9.90;;;3.40;;
9761;SDS011;4920;49.594;11.022;2023-03-15T00:45:16;6.67;;;2.90;;
9761;SDS011;4920;49.594;11.022;2023-03-15T00:47:47;10.00;;;3.07;;
9761;SDS011;4920;49.594;11.022;2023-03-15T00:50:16;7.63;;;3.33;;
9761;SDS011;4920;49.594;11.022;2023-03-15T00:52:45;10.70;;;3.87;;
9761;SDS011;4920;49.594;11.022;2023-03-15T00:55:14;9.27;;;3.33;;
9761;SDS011;4920;49.594;11.022;2023-03-15T00:57:48;11.37;;;3.57;;
9761;SDS011;4920;49.594;11.022;2023-03-15T01:00:17;9.13;;;3.53;;
9761;SDS011;4920;49.594;11.022;2023-03-15T01:02:50;13.23;;;3.20;;
9761;SDS011;4920;49.594;11.022;2023-03-15T01:05:19;9.43;;;2.77;;
9761;SDS011;4920;49.594;11.022;2023-03-15T01:07:49;7.90;;;2.87;;
9761;SDS011;4920;49.594;11.022;2023-03-15T01:10:19;7.57;;;2.83;;
9761;SDS011;4920;49.594;11.022;2023-03-15T01:12:49;6.70;;;2.93;;
9761;SDS011;4920;49.594;11.022;2023-03-15T01:15:17;7.80;;;2.93;;
9761;SDS011;4920;49.594;11.022;2023-03-15T01:17:46;5.73;;;2.90;;
9761;SDS011;4920;49.594;11.022;2023-03-15T01:20:16;6.93;;;2.63;;
9761;SDS011;4920;49.594;11.022;2023-03-15T01:22:44;9.57;;;2.90;;
9761;SDS011;4920;49.594;11.022;2023-03-15T01:25:13;5.90;;;2.50;;
9761;SDS011;4920;49.594;11.022;2023-03-15T01:27:43;6.93;;;2.63;;
9761;SDS011;4920;49.594;11.022;2023-03-15T01:30:14;6.13;;;2.47;;
9761;SDS011;4920;49.594;11.022;2023-03-15T01:32:42;6.90;;;2.50;;
9761;SDS011;4920;49.594;11.022;2023-03-15T01:35:11;4.73;;;2.20;;
9761;SDS011;4920;49.594;11.022;2023-03-15T01:37:40;5.30;;;2.40;;
9761;SDS011;4920;49.594;11.022;2023-03-15T01:40:11;10.30;;;2.40;;
9761;SDS011;4920;49.594;11.022;2023-03-15T01:42:49;12.23;;;2.43;;
9761;SDS011;4920;49.594;11.022;2023-03-15T01:48:40;4.77;;;2.03;;
9761;SDS011;4920;49.594;11.022;2023-03-15T01:51:18;4.53;;;1.80;;
9761;SDS011;4920;49.594;11.022;2023-03-15T01:53:50;5.63;;;1.83;;
9761;SDS011;4920;49.594;11.022;2023-03-15T01:56:23;5.17;;;2.10;;
9761;SDS011;4920;49.594;11.022;2023-03-15T01:58:54;5.50;;;2.00;;
9761;SDS011;4920;49.594;11.022;2023-03-15T02:01:26;6.17;;;1.80;;
9761;SDS011;4920;49.594;11.022;2023-03-15T02:03:58;4.67;;;1.70;;
9761;SDS011;4920;49.594;11.022;2023-03-15T02:06:34;5.57;;;2.00;;
9761;SDS011;4920;49.594;11.022;2023-03-15T02:09:05;4.87;;;2.20;;
9761;SDS011;4920;49.594;11.022;2023-03-15T02:11:40;5.43;;;1.97;;
9761;SDS011;4920;49.594;11.022;2023-03-15T02:14:10;5.00;;;1.80;;
9761;SDS011;4920;49.594;11.022;2023-03-15T02:16:41;6.47;;;2.03;;
9761;SDS011;4920;49.594;11.022;2023-03-15T02:19:19;5.17;;;1.93;;
9761;SDS011;4920;49.594;11.022;2023-03-15T02:22:00;4.37;;;1.73;;
9761;SDS011;4920;49.594;11.022;2023-03-15T02:24:38;4.63;;;1.80;;
9761;SDS011;4920;49.594;11.022;2023-03-15T02:27:19;6.40;;;2.10;;
9761;SDS011;4920;49.594;11.022;2023-03-15T02:29:53;6.53;;;2.30;;
9761;SDS011;4920;49.594;11.022;2023-03-15T02:32:21;5.10;;;2.07;;
9761;SDS011;4920;49.594;11.022;2023-03-15T02:34:50;7.50;;;2.23;;
9761;SDS011;4920;49.594;11.022;2023-03-15T02:37:18;5.83;;;2.10;;
9761;SDS011;4920;49.594;11.022;2023-03-15T02:39:47;7.30;;;2.03;;
9761;SDS011;4920;49.594;11.022;2023-03-15T02:42:16;4.17;;;2.50;;
9761;SDS011;4920;49.594;11.022;2023-03-15T02:44:48;3.27;;;2.20;;
9761;SDS011;4920;49.594;11.022;2023-03-15T02:47:19;4.83;;;2.43;;
9761;SDS011;4920;49.594;11.022;2023-03-15T02:49:51;7.63;;;2.67;;
9761;SDS011;4920;49.594;11.022;2023-03-15T02:52:21;6.20;;;2.47;;
9761;SDS011;4920;49.594;11.022;2023-03-15T02:54:50;10.67;;;2.70;;
9761;SDS011;4920;49.594;11.022;2023-03-15T02:57:19;8.03;;;2.50;;
9761;SDS011;4920;49.594;11.022;2023-03-15T02:59:50;10.70;;;2.73;;
9761;SDS011;4920;49.594;11.022;2023-03-15T03:02:20;9.23;;;2.37;;
9761;SDS011;4920;49.594;11.022;2023-03-15T03:04:50;7.27;;;2.63;;
9761;SDS011;4920;49.594;11.022;2023-03-15T03:07:19;5.53;;;2.63;;
9761;SDS011;4920;49.594;11.022;2023-03-15T03:09:54;7.23;;;2.80;;
9761;SDS011;4920;49.594;11.022;2023-03-15T03:12:25;7.43;;;3.10;;
9761;SDS011;4920;49.594;11.022;2023-03-15T03:14:55;7.77;;;3.43;;
9761;SDS011;4920;49.594;11.022;2023-03-15T03:17:23;12.27;;;3.20;;
9761;SDS011;4920;49.594;11.022;2023-03-15T03:19:52;7.00;;;2.90;;
9761;SDS011;4920;49.594;11.022;2023-03-15T03:22:29;6.23;;;2.90;;
9761;SDS011;4920;49.594;11.022;2023-03-15T03:24:57;10.00;;;3.77;;
9761;SDS011;4920;49.594;11.022;2023-03-15T03:27:26;11.67;;;3.40;;
9761;SDS011;4920;49.594;11.022;2023-03-15T03:29:57;9.17;;;3.80;;
9761;SDS011;4920;49.594;11.022;2023-03-15T03:32:27;9.20;;;3.60;;
9761;SDS011;4920;49.594;11.022;2023-03-15T03:34:56;10.17;;;3.83;;
9761;SDS011;4920;49.594;11.022;2023-03-15T03:37:25;14.00;;;3.93;;
9761;SDS011;4920;49.594;11.022;2023-03-15T03:40:07;12.43;;;4.10;;
9761;SDS011;4920;49.594;11.022;2023-03-15T03:42:37;12.47;;;4.27;;
9761;SDS011;4920;49.594;11.022;2023-03-15T03:45:09;10.13;;;4.57;;
9761;SDS011;4920;49.594;11.022;2023-03-15T03:47:42;9.30;;;4.37;;
9761;SDS011;4920;49.594;11.022;2023-03-15T03:50:10;10.90;;;4.70;;
9761;SDS011;4920;49.594;11.022;2023-03-15T03:52:39;12.07;;;4.40;;
9761;SDS011;4920;49.594;11.022;2023-03-15T03:55:15;11.23;;;4.90;;
9761;SDS011;4920;49.594;11.022;2023-03-15T03:57:44;12.63;;;5.10;;
9761;SDS011;4920;49.594;11.022;2023-03-15T04:00:24;13.77;;;5.97;;
9761;SDS011;4920;49.594;11.022;2023-03-15T04:02:52;13.67;;;6.30;;
9761;SDS011;4920;49.594;11.022;2023-03-15T04:05:21;13.53;;;5.73;;
9761;SDS011;4920;49.594;11.022;2023-03-15T04:07:50;18.17;;;6.27;;
9761;SDS011;4920;49.594;11.022;2023-03-15T04:10:18;16.17;;;6.50;;
9761;SDS011;4920;49.594;11.022;2023-03-15T04:12:53;15.83;;;7.20;;
9761;SDS011;4920;49.594;11.022;2023-03-15T04:15:24;19.43;;;7.50;;
9761;SDS011;4920;49.594;11.022;2023-03-15T04:17:53;17.73;;;7.50;;
9761;SDS011;4920;49.594;11.022;2023-03-15T04:20:24;15.60;;;7.80;;
9761;SDS011;4920;49.594;11.022;2023-03-15T04:22:54;15.47;;;7.33;;
9761;SDS011;4920;49.594;11.022;2023-03-15T04:25:49;20.03;;;8.53;;
9761;SDS011;4920;49.594;11.022;2023-03-15T04:28:39;19.70;;;8.70;;
9761;SDS011;4920;49.594;11.022;2023-03-15T04:31:35;17.13;;;8.73;;
9761;SDS011;4920;49.594;11.022;2023-03-15T04:34:15;19.27;;;9.10;;
9761;SDS011;4920;49.594;11.022;2023-03-15T04:36:54;21.17;;;9.30;;
9761;SDS011;4920;49.594;11.022;2023-03-15T04:39:51;19.33;;;9.53;;
9761;SDS011;4920;49.594;11.022;2023-03-15T04:42:38;22.20;;;9.70;;
9761;SDS011;4920;49.594;11.022;2023-03-15T04:45:15;21.53;;;10.47;;
9761;SDS011;4920;49.594;11.022;2023-03-15T04:48:04;21.53;;;10.07;;
9761;SDS011;4920;49.594;11.022;2023-03-15T04:50:39;22.10;;;9.93;;
9761;SDS011;4920;49.594;11.022;2023-03-15T04:53:17;26.43;;;10.80;;
9761;SDS011;4920;49.594;11.022;2023-03-15T04:56:05;22.60;;;9.90;;
9761;SDS011;4920;49.594;11.022;2023-03-15T04:58:56;21.33;;;10.00;;
9761;SDS011;4920;49.594;11.022;2023-03-15T05:01:49;21.87;;;10.20;;
9761;SDS011;4920;49.594;11.022;2023-03-15T05:04:34;19.53;;;9.73;;
9761;SDS011;4920;49.594;11.022;2023-03-15T05:07:31;18.77;;;10.33;;
9761;SDS011;4920;49.594;11.022;2023-03-15T05:10:03;21.90;;;9.73;;
9761;SDS011;4920;49.594;11.022;2023-03-15T05:12:49;21.50;;;10.13;;
9761;SDS011;4920;49.594;11.022;2023-03-15T05:15:37;27.07;;;10.67;;
9761;SDS011;4920;49.594;11.022;2023-03-15T05:18:19;24.43;;;10.33;;
9761;SDS011;4920;49.594;11.022;2023-03-15T05:21:25;25.63;;;10.20;;
9761;SDS011;4920;49.594;11.022;2023-03-15T05:24:04;20.17;;;10.47;;
9761;SDS011;4920;49.594;11.022;2023-03-15T05:26:56;26.60;;;10.77;;
9761;SDS011;4920;49.594;11.022;2023-03-15T05:29:40;26.40;;;10.73;;
9761;SDS011;4920;49.594;11.022;2023-03-15T05:32:34;23.53;;;11.77;;
9761;SDS011;4920;49.594;11.022;2023-03-15T05:35:22;26.47;;;10.77;;
9761;SDS011;4920;49.594;11.022;2023-03-15T05:38:20;28.37;;;11.80;;
9761;SDS011;4920;49.594;11.022;2023-03-15T05:41:15;28.03;;;11.57;;
9761;SDS011;4920;49.594;11.022;2023-03-15T05:43:52;23.83;;;11.63;;
9761;SDS011;4920;49.594;11.022;2023-03-15T05:46:41;25.77;;;11.97;;
9761;SDS011;4920;49.594;11.022;2023-03-15T05:49:23;25.97;;;11.60;;
9761;SDS011;4920;49.594;11.022;2023-03-15T05:52:06;26.83;;;11.77;;
9761;SDS011;4920;49.594;11.022;2023-03-15T05:54:46;23.53;;;10.77;;
9761;SDS011;4920;49.594;11.022;2023-03-15T05:57:42;28.07;;;11.07;;
9761;SDS011;4920;49.594;11.022;2023-03-15T06:00:26;27.00;;;11.23;;
9761;SDS011;4920;49.594;11.022;2023-03-15T06:03:01;21.97;;;10.30;;
9761;SDS011;4920;49.594;11.022;2023-03-15T06:05:42;22.83;;;9.57;;
9761;SDS011;4920;49.594;11.022;2023-03-15T06:08:16;25.30;;;9.63;;
9761;SDS011;4920;49.594;11.022;2023-03-15T06:10:48;25.37;;;9.80;;
9761;SDS011;4920;49.594;11.022;2023-03-15T06:13:18;18.23;;;9.33;;
9761;SDS011;4920;49.594;11.022;2023-03-15T06:15:47;21.73;;;9.27;;
9761;SDS011;4920;49.594;11.022;2023-03-15T06:18:18;21.40;;;8.47;;
9761;SDS011;4920;49.594;11.022;2023-03-15T06:20:48;24.40;;;9.23;;
9761;SDS011;4920;49.594;11.022;2023-03-15T06:23:18;19.27;;;8.27;;
9761;SDS011;4920;49.594;11.022;2023-03-15T06:25:49;18.07;;;8.30;;
9761;SDS011;4920;49.594;11.022;2023-03-15T06:28:19;19.83;;;8.30;;
9761;SDS011;4920;49.594;11.022;2023-03-15T06:30:53;22.43;;;8.07;;
9761;SDS011;4920;49.594;11.022;2023-03-15T06:33:32;19.50;;;7.87;;
9761;SDS011;4920;49.594;11.022;2023-03-15T06:36:00;21.60;;;8.13;;
9761;SDS011;4920;49.594;11.022;2023-03-15T06:38:29;17.57;;;7.47;;
9761;SDS011;4920;49.594;11.022;2023-03-15T06:40:59;18.33;;;7.80;;
9761;SDS011;4920;49.594;11.022;2023-03-15T06:43:33;16.97;;;7.87;;
9761;SDS011;4920;49.594;11.022;2023-03-15T06:46:02;17.70;;;7.60;;
9761;SDS011;4920;49.594;11.022;2023-03-15T06:48:31;15.97;;;7.80;;
9761;SDS011;4920;49.594;11.022;2023-03-15T06:51:00;13.43;;;7.03;;
9761;SDS011;4920;49.594;11.022;2023-03-15T06:53:31;16.37;;;7.70;;
9761;SDS011;4920;49.594;11.022;2023-03-15T06:56:02;17.20;;;7.07;;
9761;SDS011;4920;49.594;11.022;2023-03-15T06:58:31;16.70;;;7.53;;
9761;SDS011;4920;49.594;11.022;2023-03-15T07:00:59;13.67;;;7.27;;
9761;SDS011;4920;49.594;11.022;2023-03-15T07:03:28;17.10;;;7.67;;
9761;SDS011;4920;49.594;11.022;2023-03-15T07:05:57;17.43;;;8.20;;
9761;SDS011;4920;49.594;11.022;2023-03-15T07:08:25;13.60;;;7.50;;
9761;SDS011;4920;49.594;11.022;2023-03-15T07:10:54;17.10;;;7.47;;
9761;SDS011;4920;49.594;11.022;2023-03-15T07:13:24;15.23;;;7.77;;
9761;SDS011;4920;49.594;11.022;2023-03-15T07:15:53;15.40;;;7.30;;
9761;SDS011;4920;49.594;11.022;2023-03-15T07:18:23;13.00;;;7.20;;
9761;SDS011;4920;49.594;11.022;2023-03-15T07:20:55;13.43;;;6.90;;
9761;SDS011;4920;49.594;11.022;2023-03-15T07:23:24;16.87;;;6.67;;
9761;SDS011;4920;49.594;11.022;2023-03-15T07:25:53;13.57;;;7.27;;
9761;SDS011;4920;49.594;11.022;2023-03-15T07:28:23;12.90;;;7.03;;
9761;SDS011;4920;49.594;11.022;2023-03-15T07:30:54;14.53;;;6.97;;
9761;SDS011;4920;49.594;11.022;2023-03-15T07:33:24;13.63;;;6.20;;
9761;SDS011;4920;49.594;11.022;2023-03-15T07:35:53;13.23;;;6.70;;
9761;SDS011;4920;49.594;11.022;2023-03-15T07:38:23;15.37;;;7.00;;
9761;SDS011;4920;49.594;11.022;2023-03-15T07:40:54;12.30;;;7.10;;
9761;SDS011;4920;49.594;11.022;2023-03-15T07:43:25;14.33;;;7.37;;
9761;SDS011;4920;49.594;11.022;2023-03-15T07:46:24;14.57;;;7.33;;
9761;SDS011;4920;49.594;11.022;2023-03-15T07:48:53;16.23;;;6.90;;
9761;SDS011;4920;49.594;11.022;2023-03-15T07:51:22;14.33;;;7.00;;
9761;SDS011;4920;49.594;11.022;2023-03-15T07:53:50;11.80;;;5.20;;
9761;SDS011;4920;49.594;11.022;2023-03-15T07:56:19;11.47;;;4.63;;
9761;SDS011;4920;49.594;11.022;2023-03-15T07:58:49;10.50;;;4.90;;
9761;SDS011;4920;49.594;11.022;2023-03-15T08:01:17;9.57;;;4.80;;
9761;SDS011;4920;49.594;11.022;2023-03-15T08:03:47;11.03;;;4.70;;
9761;SDS011;4920;49.594;11.022;2023-03-15T08:06:15;12.67;;;5.50;;
9761;SDS011;4920;49.594;11.022;2023-03-15T08:08:44;12.53;;;5.83;;
9761;SDS011;4920;49.594;11.022;2023-03-15T08:11:12;11.00;;;5.30;;
9761;SDS011;4920;49.594;11.022;2023-03-15T08:13:41;11.57;;;5.50;;
9761;SDS011;4920;49.594;11.022;2023-03-15T08:16:11;10.03;;;5.30;;
9761;SDS011;4920;49.594;11.022;2023-03-15T08:18:39;10.20;;;4.80;;
9761;SDS011;4920;49.594;11.022;2023-03-15T08:21:08;10.03;;;5.10;;
9761;SDS011;4920;49.594;11.022;2023-03-15T08:23:37;14.10;;;5.23;;
9761;SDS011;4920;49.594;11.022;2023-03-15T08:26:06;10.23;;;4.73;;
9761;SDS011;4920;49.594;11.022;2023-03-15T08:28:35;12.17;;;4.77;;
9761;SDS011;4920;49.594;11.022;2023-03-15T08:31:05;12.07;;;4.37;;
9761;SDS011;4920;49.594;11.022;2023-03-15T08:33:35;10.27;;;4.27;;
9761;SDS011;4920;49.594;11.022;2023-03-15T08:36:04;11.63;;;4.03;;
9761;SDS011;4920;49.594;11.022;2023-03-15T08:38:33;11.27;;;3.80;;
9761;SDS011;4920;49.594;11.022;2023-03-15T08:41:02;8.07;;;4.07;;
9761;SDS011;4920;49.594;11.022;2023-03-15T08:43:30;10.53;;;3.83;;
9761;SDS011;4920;49.594;11.022;2023-03-15T08:45:59;11.33;;;3.60;;
9761;SDS011;4920;49.594;11.022;2023-03-15T08:48:28;14.47;;;4.50;;
9761;SDS011;4920;49.594;11.022;2023-03-15T08:51:01;9.30;;;4.07;;
9761;SDS011;4920;49.594;11.022;2023-03-15T08:53:31;9.47;;;3.80;;
9761;SDS011;4920;49.594;11.022;2023-03-15T08:56:00;9.00;;;3.80;;
9761;SDS011;4920;49.594;11.022;2023-03-15T08:58:30;9.20;;;3.50;;
9761;SDS011;4920;49.594;11.022;2023-03-15T09:00:58;10.33;;;3.90;;
9761;SDS011;4920;49.594;11.022;2023-03-15T09:03:29;10.93;;;4.30;;
9761;SDS011;4920;49.594;11.022;2023-03-15T09:05:59;7.60;;;4.00;;
9761;SDS011;4920;49.594;11.022;2023-03-15T09:08:31;7.97;;;3.90;;
9761;SDS011;4920;49.594;11.022;2023-03-15T09:14:43;9.20;;;3.60;;
9761;SDS011;4920;49.594;11.022;2023-03-15T09:17:16;9.33;;;3.30;;
9761;SDS011;4920;49.594;11.022;2023-03-15T09:19:45;10.70;;;3.43;;
9761;SDS011;4920;49.594;11.022;2023-03-15T09:22:16;7.67;;;2.90;;
9761;SDS011;4920;49.594;11.022;2023-03-15T09:25:05;9.37;;;2.77;;
9761;SDS011;4920;49.594;11.022;2023-03-15T09:30:31;14.57;;;2.80;;
9761;SDS011;4920;49.594;11.022;2023-03-15T09:33:00;8.43;;;3.10;;
9761;SDS011;4920;49.594;11.022;2023-03-15T09:35:29;9.40;;;2.80;;
9761;SDS011;4920;49.594;11.022;2023-03-15T09:37:58;9.63;;;2.77;;
9761;SDS011;4920;49.594;11.022;2023-03-15T09:40:32;9.70;;;2.87;;
9761;SDS011;4920;49.594;11.022;2023-03-15T09:43:11;9.90;;;2.77;;
9761;SDS011;4920;49.594;11.022;2023-03-15T09:45:57;10.63;;;2.67;;
9761;SDS011;4920;49.594;11.022;2023-03-15T09:48:33;7.10;;;3.00;;
9761;SDS011;4920;49.594;11.022;2023-03-15T09:51:08;8.13;;;2.93;;
9761;SDS011;4920;49.594;11.022;2023-03-15T09:53:41;9.20;;;3.43;;
9761;SDS011;4920;49.594;11.022;2023-03-15T09:56:19;8.73;;;3.27;;
9761;SDS011;4920;49.594;11.022;2023-03-15T09:58:51;10.60;;;3.87;;
9761;SDS011;4920;49.594;11.022;2023-03-15T10:01:24;9.83;;;3.37;;
9761;SDS011;4920;49.594;11.022;2023-03-15T10:03:57;9.37;;;4.00;;
9761;SDS011;4920;49.594;11.022;2023-03-15T10:09:31;13.93;;;4.40;;
9761;SDS011;4920;49.594;11.022;2023-03-15T10:12:02;14.63;;;4.87;;
9761;SDS011;4920;49.594;11.022;2023-03-15T10:17:50;15.53;;;5.40;;
9761;SDS011;4920;49.594;11.022;2023-03-15T10:20:31;11.63;;;4.53;;
9761;SDS011;4920;49.594;11.022;2023-03-15T10:23:04;10.33;;;4.10;;
9761;SDS011;4920;49.594;11.022;2023-03-15T10:25:42;8.93;;;3.83;;
9761;SDS011;4920;49.594;11.022;2023-03-15T10:28:18;12.30;;;3.80;;
9761;SDS011;4920;49.594;11.022;2023-03-15T10:30:51;13.17;;;3.93;;
9761;SDS011;4920;49.594;11.022;2023-03-15T10:33:22;9.20;;;3.90;;
9761;SDS011;4920;49.594;11.022;2023-03-15T10:35:55;7.83;;;3.57;;
9761;SDS011;4920;49.594;11.022;2023-03-15T10:38:37;11.00;;;4.40;;
9761;SDS011;4920;49.594;11.022;2023-03-15T10:41:10;13.37;;;4.30;;
9761;SDS011;4920;49.594;11.022;2023-03-15T10:43:56;10.40;;;4.67;;
9761;SDS011;4920;49.594;11.022;2023-03-15T10:46:27;10.67;;;4.10;;
9761;SDS011;4920;49.594;11.022;2023-03-15T10:48:57;10.30;;;4.03;;
9761;SDS011;4920;49.594;11.022;2023-03-15T10:51:29;10.03;;;3.67;;
9761;SDS011;4920;49.594;11.022;2023-03-15T10:54:00;6.10;;;3.43;;
9761;SDS011;4920;49.594;11.022;2023-03-15T10:56:34;10.10;;;3.90;;
9761;SDS011;4920;49.594;11.022;2023-03-15T10:59:11;7.60;;;3.70;;
9761;SDS011;4920;49.594;11.022;2023-03-15T11:01:44;9.63;;;4.30;;
9761;SDS011;4920;49.594;11.022;2023-03-15T11:04:16;9.77;;;3.97;;
9761;SDS011;4920;49.594;11.022;2023-03-15T11:06:47;9.50;;;3.67;;
9761;SDS011;4920;49.594;11.022;2023-03-15T11:09:18;8.93;;;3.77;;
9761;SDS011;4920;49.594;11.022;2023-03-15T11:11:56;9.63;;;3.83;;
9761;SDS011;4920;49.594;11.022;2023-03-15T11:17:28;9.63;;;3.70;;
9761;SDS011;4920;49.594;11.022;2023-03-15T11:20:00;8.17;;;3.67;;
9761;SDS011;4920;49.594;11.022;2023-03-15T11:22:38;7.97;;;3.40;;
9761;SDS011;4920;49.594;11.022;2023-03-15T11:25:10;9.20;;;3.40;;
9761;SDS011;4920;49.594;11.022;2023-03-15T11:27:40;9.80;;;3.60;;
9761;SDS011;4920;49.594;11.022;2023-03-15T11:30:13;8.10;;;3.10;;
9761;SDS011;4920;49.594;11.022;2023-03-15T11:35:47;9.07;;;3.77;;
9761;SDS011;4920;49.594;11.022;2023-03-15T11:38:17;12.13;;;3.47;;
9761;SDS011;4920;49.594;11.022;2023-03-15T11:40:53;8.63;;;3.23;;
9761;SDS011;4920;49.594;11.022;2023-03-15T11:43:27;6.60;;;2.80;;
9761;SDS011;4920;49.594;11.022;2023-03-15T11:46:03;5.43;;;2.73;;
9761;SDS011;4920;49.594;11.022;2023-03-15T11:48:43;6.80;;;2.97;;
9761;SDS011;4920;49.594;11.022;2023-03-15T11:51:17;8.93;;;3.50;;
9761;SDS011;4920;49.594;11.022;2023-03-15T11:53:47;7.23;;;3.10;;
9761;SDS011;4920;49.594;11.022;2023-03-15T11:56:23;7.63;;;3.10;;
9761;SDS011;4920;49.594;11.022;2023-03-15T11:59:00;6.17;;;2.90;;
9761;SDS011;4920;49.594;11.022;2023-03-15T12:01:36;6.30;;;3.23;;
9761;SDS011;4920;49.594;11.022;2023-03-15T12:04:36;5.40;;;2.63;;
9761;SDS011;4920;49.594;11.022;2023-03-15T12:07:23;4.83;;;2.77;;
9761;SDS011;4920;49.594;11.022;2023-03-15T12:10:30;3.27;;;2.20;;
9761;SDS011;4920;49.594;11.022;2023-03-15T12:13:06;5.13;;;2.47;;
9761;SDS011;4920;49.594;11.022;2023-03-15T12:15:48;5.00;;;2.27;;
9761;SDS011;4920;49.594;11.022;2023-03-15T12:18:29;5.40;;;2.50;;
9761;SDS011;4920;49.594;11.022;2023-03-15T12:21:05;4.03;;;2.43;;
9761;SDS011;4920;49.594;11.022;2023-03-15T12:23:38;4.33;;;2.00;;
9761;SDS011;4920;49.594;11.022;2023-03-15T12:26:13;7.53;;;2.40;;
9761;SDS011;4920;49.594;11.022;2023-03-15T12:29:01;5.30;;;2.37;;
9761;SDS011;4920;49.594;11.022;2023-03-15T12:31:44;5.70;;;2.90;;
9761;SDS011;4920;49.594;11.022;2023-03-15T12:37:25;4.93;;;2.50;;
9761;SDS011;4920;49.594;11.022;2023-03-15T12:39:59;4.53;;;2.50;;
9761;SDS011;4920;49.594;11.022;2023-03-15T12:45:33;5.43;;;2.20;;
9761;SDS011;4920;49.594;11.022;2023-03-15T12:48:18;5.00;;;2.13;;
9761;SDS011;4920;49.594;11.022;2023-03-15T12:50:59;3.23;;;2.40;;
9761;SDS011;4920;49.594;11.022;2023-03-15T12:53:35;5.87;;;2.40;;
9761;SDS011;4920;49.594;11.022;2023-03-15T12:56:31;4.37;;;2.57;;
9761;SDS011;4920;49.594;11.022;2023-03-15T12:59:21;5.57;;;2.40;;
9761;SDS011;4920;49.594;11.022;2023-03-15T13:01:57;5.77;;;2.67;;
9761;SDS011;4920;49.594;11.022;2023-03-15T13:04:28;3.83;;;2.40;;
9761;SDS011;4920;49.594;11.022;2023-03-15T13:07:13;5.90;;;2.70;;
9761;SDS011;4920;49.594;11.022;2023-03-15T13:12:57;5.03;;;2.57;;
9761;SDS011;4920;49.594;11.022;2023-03-15T13:15:35;3.13;;;2.13;;
9761;SDS011;4920;49.594;11.022;2023-03-15T13:18:10;5.13;;;2.17;;
9761;SDS011;4920;49.594;11.022;2023-03-15T13:20:49;6.90;;;2.70;;
9761;SDS011;4920;49.594;11.022;2023-03-15T13:26:46;4.23;;;2.57;;
9761;SDS011;4920;49.594;11.022;2023-03-15T13:29:21;7.00;;;2.90;;
9761;SDS011;4920;49.594;11.022;2023-03-15T13:32:00;7.10;;;2.70;;
9761;SDS011;4920;49.594;11.022;2023-03-15T13:34:33;5.73;;;2.40;;
9761;SDS011;4920;49.594;11.022;2023-03-15T13:37:02;5.03;;;2.30;;
9761;SDS011;4920;49.594;11.022;2023-03-15T13:39:31;4.93;;;2.40;;
9761;SDS011;4920;49.594;11.022;2023-03-15T13:42:02;3.37;;;2.40;;
9761;SDS011;4920;49.594;11.022;2023-03-15T13:44:32;5.10;;;2.80;;
9761;SDS011;4920;49.594;11.022;2023-03-15T13:47:02;3.50;;;2.10;;
9761;SDS011;4920;49.594;11.022;2023-03-15T13:49:32;5.43;;;2.37;;
9761;SDS011;4920;49.594;11.022;2023-03-15T13:52:01;3.70;;;2.20;;
9761;SDS011;4920;49.594;11.022;2023-03-15T13:54:38;5.73;;;2.60;;
9761;SDS011;4920;49.594;11.022;2023-03-15T13:57:10;3.63;;;2.20;;
9761;SDS011;4920;49.594;11.022;2023-03-15T13:59:43;3.93;;;2.30;;
9761;SDS011;4920;49.594;11.022;2023-03-15T14:02:16;3.37;;;2.53;;
9761;SDS011;4920;49.594;11.022;2023-03-15T14:04:55;4.03;;;2.47;;
9761;SDS011;4920;49.594;11.022;2023-03-15T14:07:26;5.03;;;2.40;;
9761;SDS011;4920;49.594;11.022;2023-03-15T14:10:07;3.43;;;2.20;;
9761;SDS011;4920;49.594;11.022;2023-03-15T14:12:50;3.03;;;2.30;;
9761;SDS011;4920;49.594;11.022;2023-03-15T14:15:21;3.83;;;2.37;;
9761;SDS011;4920;49.594;11.022;2023-03-15T14:17:58;2.90;;;2.50;;
9761;SDS011;4920;49.594;11.022;2023-03-15T14:20:28;5.43;;;2.40;;
9761;SDS011;4920;49.594;11.022;2023-03-15T14:22:59;3.67;;;2.83;;
9761;SDS011;4920;49.594;11.022;2023-03-15T14:25:33;3.77;;;2.40;;
9761;SDS011;4920;49.594;11.022;2023-03-15T14:28:03;4.20;;;2.80;;
9761;SDS011;4920;49.594;11.022;2023-03-15T14:30:34;8.03;;;2.57;;
9761;SDS011;4920;49.594;11.022;2023-03-15T14:33:06;4.20;;;2.50;;
9761;SDS011;4920;49.594;11.022;2023-03-15T14:35:51;2.83;;;2.20;;
9761;SDS011;4920;49.594;11.022;2023-03-15T14:38:22;3.60;;;2.53;;
9761;SDS011;4920;49.594;11.022;2023-03-15T14:40:52;4.33;;;2.70;;
9761;SDS011;4920;49.594;11.022;2023-03-15T14:43:21;3.07;;;2.50;;
9761;SDS011;4920;49.594;11.022;2023-03-15T14:45:50;4.00;;;2.50;;
9761;SDS011;4920;49.594;11.022;2023-03-15T14:48:21;4.60;;;2.50;;
9761;SDS011;4920;49.594;11.022;2023-03-15T14:50:54;2.83;;;2.20;;
9761;SDS011;4920;49.594;11.022;2023-03-15T14:53:23;3.40;;;2.30;;
9761;SDS011;4920;49.594;11.022;2023-03-15T14:55:53;3.47;;;2.17;;
9761;SDS011;4920;49.594;11.022;2023-03-15T14:58:22;2.70;;;2.10;;
9761;SDS011;4920;49.594;11.022;2023-03-15T15:00:52;2.37;;;2.00;;
9761;SDS011;4920;49.594;11.022;2023-03-15T15:09:25;2.80;;;2.00;;
9761;SDS011;4920;49.594;11.022;2023-03-15T15:11:56;3.67;;;2.03;;
9761;SDS011;4920;49.594;11.022;2023-03-15T15:14:26;4.47;;;2.00;;
9761;SDS011;4920;49.594;11.022;2023-03-15T15:16:55;3.87;;;2.13;;
9761;SDS011;4920;49.594;11.022;2023-03-15T15:19:25;5.20;;;2.30;;
9761;SDS011;4920;49.594;11.022;2023-03-15T15:21:53;3.13;;;2.17;;
9761;SDS011;4920;49.594;11.022;2023-03-15T15:24:23;2.70;;;2.20;;
9761;SDS011;4920;49.594;11.022;2023-03-15T15:26:53;4.37;;;2.10;;
9761;SDS011;4920;49.594;11.022;2023-03-15T15:29:22;4.13;;;2.37;;
9761;SDS011;4920;49.594;11.022;2023-03-15T15:31:51;3.57;;;1.90;;
9761;SDS011;4920;49.594;11.022;2023-03-15T15:34:19;2.73;;;2.03;;
9761;SDS011;4920;49.594;11.022;2023-03-15T15:36:49;2.43;;;1.77;;
9761;SDS011;4920;49.594;11.022;2023-03-15T15:39:19;3.03;;;1.97;;
9761;SDS011;4920;49.594;11.022;2023-03-15T15:41:49;3.77;;;2.13;;
9761;SDS011;4920;49.594;11.022;2023-03-15T15:44:18;3.77;;;2.30;;
9761;SDS011;4920;49.594;11.022;2023-03-15T15:46:49;2.60;;;1.90;;
9761;SDS011;4920;49.594;11.022;2023-03-15T15:49:19;3.33;;;2.50;;
9761;SDS011;4920;49.594;11.022;2023-03-15T15:51:47;6.80;;;2.90;;
9761;SDS011;4920;49.594;11.022;2023-03-15T15:54:18;4.00;;;2.70;;
9761;SDS011;4920;49.594;11.022;2023-03-15T15:56:50;5.30;;;2.50;;
9761;SDS011;4920;49.594;11.022;2023-03-15T15:59:20;3.20;;;2.30;;
9761;SDS011;4920;49.594;11.022;2023-03-15T16:01:51;4.37;;;2.77;;
9761;SDS011;4920;49.594;11.022;2023-03-15T16:04:28;5.30;;;2.60;;
9761;SDS011;4920;49.594;11.022;2023-03-15T16:07:00;3.43;;;2.70;;
9761;SDS011;4920;49.594;11.022;2023-03-15T16:09:30;4.13;;;2.60;;
9761;SDS011;4920;49.594;11.022;2023-03-15T16:12:02;12.10;;;2.30;;
9761;SDS011;4920;49.594;11.022;2023-03-15T16:14:37;2.37;;;1.27;;